Monday, August 03, 2015

  Over 48,494,314 pages visited!

GMT:
23:17
PACIFIC:
4:17:50 PM
MOUNTAIN:
5:17:50 PM

CENTRAL:
6:17:50 PM

EASTERN:
7:17:50 PM
ATLANTIC:
8:17:50 PM
NEWFOUNDLAND:
8:47:50 PM
 

 


Watches/Warnings
Current Conditions
Radar/Satellite
Lightning Images


Current Weather Conditions For TORONTO PEARSON,ON

 


A Few Clouds
 

Temperature: 24C / 75F
Dew Point: 11 C / 52F
Humidity: 44 %
Pressure: 1006.8 mbs (29.73 inches)
Visibility: 24.1 kms (15 SM)
Wind Direction: WNW (280)
Wind Speed: 22.2 Km/h (13.8 MPH)
Max Wind Gust: No Gusts
Humidex: 26C
WindChill: N/A
    

Observation Information

Date/Time: Monday, August 03, 2015 @ 23:00Z
Local Time:
Metar Coded: CYYZ 032300Z 28012KT 15SM FEW065 BKN100 24/11 A2974 RMK SC2AC5 TCU DIST E-SE SLP068 DENSITY ALT 1900FT

 

 

                   1997-2015 The Ontario Weather Page